Time;durP1;ratioP1;P1;durP2;ratioP2;P2;SDS_P1;SDS_P2;PMS_P1;PMS_P2;Temp;Humidity;BMP_temperature;BMP_pressure;BME280_temperature;BME280_humidity;BME280_pressure;Samples;Min_cycle;Max_cycle;Signal;HPM_P1;HPM_P2
2023/06/13 00:01:49;;;;;;;8.52;2.20;;;;;;;17.42;64.00;100768.03;5163536;28;20027;-72
2023/06/13 00:04:23;;;;;;;6.45;1.90;;;;;;;17.34;64.03;100771.16;5166312;28;20426;-72
2023/06/13 00:06:57;;;;;;;3.17;1.90;;;;;;;17.36;63.55;100768.41;5164389;28;20026;-72
2023/06/13 00:09:30;;;;;;;3.40;1.95;;;;;;;17.35;62.96;100764.09;5164188;28;20034;-71
2023/06/13 00:12:02;;;;;;;6.88;2.00;;;;;;;17.41;62.94;100763.69;5166695;28;20036;-72
2023/06/13 00:14:32;;;;;;;5.65;2.10;;;;;;;17.46;62.50;100769.59;5166545;28;20022;-72
2023/06/13 00:17:03;;;;;;;3.42;1.95;;;;;;;17.54;62.88;100768.16;5166259;28;20088;-72
2023/06/13 00:19:33;;;;;;;6.70;1.90;;;;;;;17.56;62.96;100768.94;5167652;28;20034;-72
2023/06/13 00:22:05;;;;;;;3.67;1.92;;;;;;;17.77;61.98;100761.44;5166490;28;20101;-72
2023/06/13 00:24:36;;;;;;;3.38;1.60;;;;;;;17.69;62.58;100763.72;5166311;28;20105;-72
2023/06/13 00:27:07;;;;;;;3.92;1.77;;;;;;;17.58;63.74;100764.38;5167497;28;20042;-72
2023/06/13 00:29:37;;;;;;;3.20;1.83;;;;;;;17.60;62.88;100761.63;5164238;28;20046;-72
2023/06/13 00:32:09;;;;;;;6.38;1.90;;;;;;;17.74;63.02;100766.94;5167492;28;20471;-72
2023/06/13 00:34:40;;;;;;;3.28;1.90;;;;;;;17.48;64.33;100768.53;5164538;28;20484;-72
2023/06/13 00:37:13;;;;;;;3.67;1.90;;;;;;;17.62;63.82;100759.78;5164997;28;20129;-71
2023/06/13 00:39:43;;;;;;;3.25;1.63;;;;;;;17.60;63.54;100759.00;5169005;28;20025;-72
2023/06/13 00:42:13;;;;;;;4.28;1.80;;;;;;;17.55;63.29;100754.00;5167877;28;20030;-72
2023/06/13 00:44:44;;;;;;;4.28;1.67;;;;;;;17.49;63.27;100749.06;5158643;28;20034;-71
2023/06/13 00:47:15;;;;;;;5.03;2.00;;;;;;;17.72;62.91;100752.97;5161605;28;20034;-71
2023/06/13 00:49:46;;;;;;;4.05;1.90;;;;;;;17.71;62.72;100756.56;5162598;28;20480;-72
2023/06/13 00:52:16;;;;;;;2.90;1.80;;;;;;;17.69;62.93;100753.16;5164675;28;20025;-72
2023/06/13 00:54:46;;;;;;;4.45;1.92;;;;;;;17.62;62.90;100754.50;5164201;28;20026;-72
2023/06/13 00:57:17;;;;;;;2.90;1.75;;;;;;;17.41;63.70;100755.78;5166566;28;20028;-72
2023/06/13 00:59:47;;;;;;;3.70;1.80;;;;;;;17.21;65.35;100753.44;5165143;28;20085;-72
2023/06/13 01:02:20;;;;;;;4.60;2.10;;;;;;;17.19;65.60;100753.56;5165165;28;20032;-72
2023/06/13 01:04:53;;;;;;;5.85;2.00;;;;;;;17.29;64.18;100751.22;5163871;28;20026;-72
2023/06/13 01:07:29;;;;;;;3.10;1.67;;;;;;;17.35;64.03;100750.88;5169696;28;20021;-72
2023/06/13 01:10:00;;;;;;;6.93;2.33;;;;;;;17.24;64.15;100750.63;5168540;28;20053;-72
2023/06/13 01:12:45;;;;;;;2.85;1.75;;;;;;;17.29;64.64;100740.66;5169249;28;20038;-72
2023/06/13 01:15:18;;;;;;;3.40;1.60;;;;;;;17.21;64.81;100742.88;5171172;28;20044;-72
2023/06/13 01:17:57;;;;;;;3.50;1.85;;;;;;;16.97;65.02;100736.44;5164517;28;20889;-71
2023/06/13 01:20:28;;;;;;;4.38;1.90;;;;;;;16.96;65.20;100740.84;5168155;28;20022;-72
2023/06/13 01:23:26;;;;;;;3.45;2.00;;;;;;;16.77;65.63;100730.59;5164606;28;20031;-72
2023/06/13 01:26:06;;;;;;;3.60;1.70;;;;;;;16.66;66.47;100744.44;5165999;28;20436;-72
2023/06/13 01:28:37;;;;;;;10.55;2.20;;;;;;;16.63;66.33;100743.75;5163804;28;20022;-72
2023/06/13 01:31:11;;;;;;;4.60;1.90;;;;;;;16.80;66.07;100736.56;5164027;28;20466;-72
2023/06/13 01:33:42;;;;;;;6.95;2.00;;;;;;;16.63;66.38;100735.84;5165003;28;20102;-72
2023/06/13 01:36:12;;;;;;;3.55;1.88;;;;;;;16.64;66.75;100740.16;5168304;28;20026;-72
2023/06/13 01:38:43;;;;;;;4.00;2.17;;;;;;;16.59;66.64;100743.06;5166933;28;20052;-72
2023/06/13 01:41:13;;;;;;;4.88;1.80;;;;;;;16.66;66.27;100736.50;5165972;28;20033;-72
2023/06/13 01:43:43;;;;;;;5.22;1.75;;;;;;;16.83;66.37;100731.09;5167272;28;20026;-72
2023/06/13 01:46:26;;;;;;;4.30;2.00;;;;;;;16.65;66.61;100732.19;5166789;28;20495;-72
2023/06/13 01:49:18;;;;;;;3.08;1.73;;;;;;;16.42;67.25;100732.63;5166646;28;20029;-72
2023/06/13 01:51:55;;;;;;;7.80;2.30;;;;;;;16.47;66.51;100732.38;5166231;28;20045;-71
2023/06/13 01:54:26;;;;;;;3.22;1.75;;;;;;;16.46;66.58;100736.81;5166989;28;20045;-72
2023/06/13 01:57:00;;;;;;;3.38;2.20;;;;;;;16.36;66.96;100730.34;5161419;28;20034;-71
2023/06/13 01:59:32;;;;;;;4.13;1.80;;;;;;;16.31;67.69;100737.63;5149620;28;20041;-72
2023/06/13 02:02:04;;;;;;;3.63;1.90;;;;;;;16.57;67.26;100731.75;5163813;28;20072;-72
2023/06/13 02:04:41;;;;;;;5.70;1.80;;;;;;;16.46;67.33;100739.44;5168217;28;20026;-71
2023/06/13 02:07:11;;;;;;;5.25;2.00;;;;;;;16.36;67.99;100738.25;5166786;28;20025;-72
2023/06/13 02:09:41;;;;;;;4.95;2.08;;;;;;;16.15;69.37;100739.44;5165627;28;20048;-72
2023/06/13 02:12:12;;;;;;;3.60;1.90;;;;;;;16.19;69.28;100738.31;5168496;28;20506;-72
2023/06/13 02:14:42;;;;;;;6.90;2.10;;;;;;;16.19;69.23;100737.47;5168221;28;20033;-72
2023/06/13 02:17:13;;;;;;;3.28;1.95;;;;;;;15.97;70.58;100751.00;5165642;28;20032;-71
2023/06/13 02:19:43;;;;;;;3.92;2.20;;;;;;;15.57;72.99;100748.78;5166554;28;20466;-72
2023/06/13 02:22:13;;;;;;;6.50;2.10;;;;;;;15.49;72.75;100745.72;5168019;28;20044;-72
2023/06/13 02:24:43;;;;;;;4.30;2.00;;;;;;;15.32;73.78;100740.50;5167991;28;20442;-72
2023/06/13 02:27:14;;;;;;;4.85;2.20;;;;;;;15.37;72.42;100740.25;5167643;28;20033;-72
2023/06/13 02:29:44;;;;;;;4.30;2.03;;;;;;;15.38;73.03;100744.59;5166826;28;20487;-72
2023/06/13 02:32:15;;;;;;;3.67;2.03;;;;;;;15.47;72.48;100744.09;5168571;28;20168;-72
2023/06/13 02:34:45;;;;;;;3.53;1.90;;;;;;;15.53;73.02;100741.97;5168329;28;20216;-72
2023/06/13 02:37:16;;;;;;;7.85;2.08;;;;;;;15.44;73.00;100742.50;5166012;28;20717;-72
2023/06/13 02:39:47;;;;;;;3.22;1.90;;;;;;;15.28;73.58;100749.44;5167715;28;20057;-72
2023/06/13 02:42:17;;;;;;;8.32;3.47;;;;;;;15.05;75.31;100755.03;5167471;28;20049;-71
2023/06/13 02:44:47;;;;;;;3.53;1.90;;;;;;;15.08;74.27;100752.25;5167100;28;20100;-72
2023/06/13 02:47:20;;;;;;;7.50;2.20;;;;;;;14.98;75.26;100752.81;5167982;28;20480;-72
2023/06/13 02:49:50;;;;;;;7.03;2.05;;;;;;;14.85;75.14;100747.28;5168759;28;20092;-72
2023/06/13 02:52:21;;;;;;;5.20;1.92;;;;;;;14.95;75.74;100751.19;5165427;28;20066;-72
2023/06/13 02:54:52;;;;;;;3.70;2.00;;;;;;;14.87;75.60;100749.84;5165281;28;20038;-72
2023/06/13 02:57:22;;;;;;;4.45;2.17;;;;;;;14.87;75.79;100749.84;5168689;28;20039;-72
2023/06/13 02:59:52;;;;;;;4.70;1.88;;;;;;;14.60;76.34;100760.91;5169653;28;20026;-72
2023/06/13 03:02:25;;;;;;;5.03;1.75;;;;;;;14.88;74.40;100752.41;5169639;28;20053;-72
2023/06/13 03:04:56;;;;;;;3.50;2.10;;;;;;;14.85;74.67;100752.56;5168765;28;20087;-72
2023/06/13 03:07:26;;;;;;;4.63;2.15;;;;;;;14.98;74.21;100758.06;5171502;28;20472;-72
2023/06/13 03:09:56;;;;;;;8.07;2.30;;;;;;;14.87;75.42;100761.22;5171743;28;20036;-72
2023/06/13 03:12:27;;;;;;;3.30;1.98;;;;;;;15.04;74.32;100757.75;5172325;28;20096;-72
2023/06/13 03:14:57;;;;;;;4.03;1.90;;;;;;;15.03;73.63;100759.53;5173592;28;20026;-72
2023/06/13 03:17:28;;;;;;;5.53;2.20;;;;;;;15.08;73.06;100754.91;5172557;28;20411;-72
2023/06/13 03:19:58;;;;;;;3.35;1.80;;;;;;;15.42;71.67;100748.75;5173361;28;20037;-72
2023/06/13 03:22:28;;;;;;;4.32;2.33;;;;;;;15.49;71.36;100748.34;5917614;23;20041;-71
2023/06/13 03:25:04;;;;;;;3.35;2.00;;;;;;;15.49;70.74;100745.72;6249045;23;20021;-70
2023/06/13 03:27:35;;;;;;;;;;;;;;;15.50;70.38;100739.50;6251777;23;20017;-70
2023/06/13 03:30:07;;;;;;;2.88;1.58;;;;;;;15.47;70.55;100742.31;6250837;23;19913;-70
2023/06/13 03:32:38;;;;;;;4.95;1.88;;;;;;;15.55;69.67;100748.03;6251167;23;20105;-70
2023/06/13 03:35:08;;;;;;;4.45;2.08;;;;;;;15.54;69.95;100743.69;6249193;23;20479;-71
2023/06/13 03:37:38;;;;;;;4.20;1.70;;;;;;;15.62;69.77;100736.25;6252208;23;20017;-70
2023/06/13 03:40:09;;;;;;;3.20;1.70;;;;;;;15.67;69.68;100739.47;6254747;23;20207;-70
2023/06/13 03:42:39;;;;;;;4.20;1.60;;;;;;;15.50;70.35;100742.16;6252177;23;20070;-70
2023/06/13 03:45:10;;;;;;;4.10;1.67;;;;;;;15.58;69.24;100749.66;6252579;23;20087;-71
2023/06/13 03:47:40;;;;;;;4.97;1.70;;;;;;;15.61;69.92;100742.44;6249885;23;20021;-70
2023/06/13 03:50:10;;;;;;;3.33;1.80;;;;;;;15.60;69.59;100743.38;6245887;23;20048;-71
2023/06/13 03:52:40;;;;;;;4.20;1.67;;;;;;;15.56;70.24;100739.19;6252861;23;20270;-71
2023/06/13 03:55:11;;;;;;;5.40;2.00;;;;;;;15.59;70.10;100740.81;6251401;23;20399;-70
2023/06/13 03:57:41;;;;;;;6.55;2.10;;;;;;;15.49;70.62;100745.72;6251577;23;20510;-70
2023/06/13 04:00:12;;;;;;;4.45;1.70;;;;;;;15.69;69.77;100740.22;6250248;23;20498;-70
2023/06/13 04:02:44;;;;;;;4.15;1.80;;;;;;;15.94;69.53;100735.34;6254295;23;20024;-71
2023/06/13 04:05:16;;;;;;;4.70;2.15;;;;;;;15.72;69.28;100742.69;6246119;23;20017;-71
2023/06/13 04:07:46;;;;;;;3.22;1.70;;;;;;;15.90;69.75;100741.69;6253216;23;20386;-70
2023/06/13 04:10:17;;;;;;;6.00;2.00;;;;;;;16.02;69.71;100738.41;6250258;23;20020;-70
2023/06/13 04:12:47;;;;;;;5.70;1.77;;;;;;;16.08;69.62;100740.69;6246007;23;20509;-70
2023/06/13 04:15:17;;;;;;;3.65;1.70;;;;;;;15.96;69.51;100733.47;6250214;23;20017;-70
2023/06/13 04:17:48;;;;;;;3.83;1.83;;;;;;;16.04;69.54;100739.16;6249709;23;20019;-69
2023/06/13 04:20:21;;;;;;;4.43;1.98;;;;;;;15.92;69.76;100742.50;6250771;23;20020;-70
2023/06/13 04:22:52;;;;;;;4.63;2.08;;;;;;;16.08;69.38;100743.31;6244138;23;20418;-70
2023/06/13 04:25:22;;;;;;;4.82;2.00;;;;;;;16.13;69.62;100736.03;6253959;23;20021;-70
2023/06/13 04:27:53;;;;;;;5.70;1.70;;;;;;;16.16;69.23;100738.50;6255242;23;20019;-70
2023/06/13 04:30:24;;;;;;;4.85;1.65;;;;;;;16.22;69.55;100738.13;6247260;23;20092;-71
2023/06/13 04:32:57;;;;;;;8.43;2.65;;;;;;;16.46;69.27;100731.53;6253708;23;20092;-70
2023/06/13 04:35:27;;;;;;;3.65;1.80;;;;;;;16.52;68.44;100733.81;6247879;23;20482;-70
2023/06/13 04:37:58;;;;;;;4.72;1.77;;;;;;;16.70;68.34;100729.28;6251323;23;20044;-70
2023/06/13 04:40:31;;;;;;;6.85;1.70;;;;;;;16.96;68.47;100727.66;6249408;23;20202;-70
2023/06/13 04:43:03;;;;;;;5.28;1.83;;;;;;;17.66;66.73;100724.28;6251755;23;20023;-71
2023/06/13 04:45:35;;;;;;;4.78;1.85;;;;;;;18.48;64.79;100729.50;6245489;23;20043;-71
2023/06/13 04:48:09;;;;;;;6.72;1.83;;;;;;;20.48;59.83;100711.75;6250463;23;20039;-69
2023/06/13 04:50:44;;;;;;;2.42;1.40;;;;;;;22.12;55.93;100713.88;6252192;23;20383;-71
2023/06/13 04:53:15;;;;;;;4.00;1.85;;;;;;;22.84;54.16;100719.38;6249821;23;20012;-71
2023/06/13 04:55:47;;;;;;;5.93;1.50;;;;;;;23.12;53.32;100717.94;6253688;23;20017;-70
2023/06/13 04:58:18;;;;;;;3.47;2.13;;;;;;;23.29;52.96;100718.19;6245186;23;20387;-71
2023/06/13 05:00:48;;;;;;;11.15;2.35;;;;;;;24.58;50.37;100709.25;6251163;23;20031;-69
2023/06/13 05:03:20;;;;;;;5.57;1.73;;;;;;;23.95;51.70;100724.84;6251918;23;20020;-71
2023/06/13 05:05:50;;;;;;;4.47;1.30;;;;;;;25.42;49.98;100714.69;6245655;23;20186;-71
2023/06/13 05:08:22;;;;;;;2.60;1.42;;;;;;;24.09;51.23;100720.00;6252646;23;20040;-71
2023/06/13 05:10:53;;;;;;;3.08;1.50;;;;;;;23.70;51.73;100723.47;6254874;23;20075;-70
2023/06/13 05:13:23;;;;;;;3.60;1.38;;;;;;;23.86;51.52;100721.16;6249455;23;20024;-71
2023/06/13 05:15:55;;;;;;;2.75;1.50;;;;;;;24.78;50.71;100719.00;6250810;23;20013;-70
2023/06/13 05:18:29;;;;;;;4.07;1.30;;;;;;;25.92;49.47;100716.09;6253862;23;20097;-71
2023/06/13 05:21:00;;;;;;;3.92;1.50;;;;;;;27.28;47.56;100713.84;6251990;23;20414;-72
2023/06/13 05:23:31;;;;;;;4.32;2.05;;;;;;;25.66;48.42;100717.75;6254003;23;20027;-71
2023/06/13 05:26:01;;;;;;;4.00;1.33;;;;;;;26.14;47.68;100721.09;6249013;23;20021;-71
2023/06/13 05:28:31;;;;;;;2.23;1.43;;;;;;;26.75;47.20;100705.00;6252692;23;20040;-71
2023/06/13 05:31:02;;;;;;;3.03;1.67;;;;;;;25.24;50.59;100711.94;6253842;23;20330;-71
2023/06/13 05:33:33;;;;;;;6.75;1.40;;;;;;;26.43;47.85;100711.00;6249794;23;20266;-71
2023/06/13 05:36:03;;;;;;;2.40;1.17;;;;;;;25.40;50.35;100708.66;6250414;23;20075;-71
2023/06/13 05:38:36;;;;;;;5.35;1.70;;;;;;;24.69;51.27;100706.47;6250622;23;20283;-71
2023/06/13 05:41:06;;;;;;;2.28;1.30;;;;;;;24.57;50.88;100707.56;6243612;23;20521;-71
2023/06/13 05:43:37;;;;;;;4.90;1.90;;;;;;;23.90;52.35;100711.91;6249523;23;20028;-71
2023/06/13 05:46:07;;;;;;;3.67;1.77;;;;;;;24.17;51.59;100713.94;6254347;23;20438;-70
2023/06/13 05:48:37;;;;;;;4.13;1.42;;;;;;;23.23;53.88;100716.03;6252756;23;20291;-71
2023/06/13 05:51:08;;;;;;;2.28;1.25;;;;;;;23.32;53.12;100709.06;6252029;23;20020;-71
2023/06/13 05:53:38;;;;;;;2.28;1.50;;;;;;;22.91;53.97;100709.91;6254742;23;20021;-70
2023/06/13 05:56:08;;;;;;;5.47;1.50;;;;;;;22.77;nan;100707.56;6255010;23;20059;-70
2023/06/13 05:58:38;;;;;;;4.30;1.40;;;;;;;22.84;55.07;100706.03;6249255;23;20264;-70
2023/06/13 06:01:10;;;;;;;8.70;2.60;;;;;;;23.19;54.21;100701.28;6253197;23;20032;-70
2023/06/13 06:03:40;;;;;;;2.88;1.40;;;;;;;22.60;55.89;100706.41;6250171;23;20917;-71
2023/06/13 06:06:11;;;;;;;4.17;1.50;;;;;;;22.47;56.25;100697.75;6252441;23;20110;-70
2023/06/13 06:08:41;;;;;;;2.67;1.57;;;;;;;22.49;56.22;100706.44;6248575;23;20259;-70
2023/06/13 06:11:11;;;;;;;2.10;1.30;;;;;;;22.95;56.36;100700.66;6248533;23;20645;-71
2023/06/13 06:13:41;;;;;;;2.50;1.33;;;;;;;23.35;55.69;100703.50;6245918;23;20306;-71
2023/06/13 06:16:12;;;;;;;8.67;1.47;;;;;;;23.37;54.85;100696.19;6242422;23;20020;-71
2023/06/13 06:18:42;;;;;;;2.20;1.40;;;;;;;22.35;56.86;100704.03;6245807;23;20284;-71
2023/06/13 06:21:13;;;;;;;4.75;1.50;;;;;;;22.88;55.58;100695.97;6244656;23;20467;-71
2023/06/13 06:23:44;;;;;;;7.32;1.67;;;;;;;23.21;56.22;100691.31;6250460;23;20526;-71
2023/06/13 06:26:14;;;;;;;3.38;1.30;;;;;;;23.41;55.79;100687.81;6246037;23;20055;-70
2023/06/13 06:28:44;;;;;;;3.17;1.50;;;;;;;24.20;54.22;100690.47;6250701;23;20012;-71
2023/06/13 06:31:15;;;;;;;2.90;1.33;;;;;;;24.16;54.10;100686.41;6246103;23;20029;-70
2023/06/13 06:33:45;;;;;;;5.47;1.50;;;;;;;24.48;52.80;100688.81;6251292;23;20024;-71
2023/06/13 06:36:16;;;;;;;3.25;1.55;;;;;;;25.00;52.98;100683.94;6245012;23;20938;-71
2023/06/13 06:38:46;;;;;;;2.78;1.33;;;;;;;24.73;52.47;100690.00;6245952;23;20023;-71
2023/06/13 06:41:16;;;;;;;3.97;1.40;;;;;;;25.11;52.16;100687.28;6245839;23;20383;-71
2023/06/13 06:43:47;;;;;;;3.90;1.33;;;;;;;25.64;50.25;100687.59;6253427;23;20255;-71
2023/06/13 06:46:17;;;;;;;6.07;1.40;;;;;;;26.14;49.65;100700.47;6249086;23;20031;-71
2023/06/13 06:48:47;;;;;;;8.57;1.63;;;;;;;25.70;49.33;100695.03;6251654;23;20021;-71
2023/06/13 06:51:17;;;;;;;4.72;1.42;;;;;;;25.39;50.95;100697.13;6251258;23;20759;-71
2023/06/13 06:53:49;;;;;;;4.75;1.55;;;;;;;25.29;51.22;100690.94;6255532;23;20100;-69
2023/06/13 06:56:20;;;;;;;5.57;1.38;;;;;;;25.90;50.13;100688.63;6249823;23;20092;-71
2023/06/13 06:58:50;;;;;;;3.87;1.30;;;;;;;26.53;50.46;100693.03;6252089;23;20065;-70
2023/06/13 07:01:20;;;;;;;2.83;1.50;;;;;;;26.71;49.18;100689.34;6247220;23;20265;-71
2023/06/13 07:03:51;;;;;;;3.97;1.58;;;;;;;26.73;48.37;100690.88;6255773;23;20259;-70
2023/06/13 07:06:21;;;;;;;2.38;1.33;;;;;;;25.90;50.11;100702.88;6251379;23;20024;-70
2023/06/13 07:08:52;;;;;;;3.42;1.77;;;;;;;27.26;47.85;100691.66;6255936;23;20023;-71
2023/06/13 07:11:22;;;;;;;4.13;1.60;;;;;;;26.25;49.71;100696.72;6251893;23;20387;-71
2023/06/13 07:13:52;;;;;;;3.30;1.53;;;;;;;27.67;47.41;100676.63;6254207;23;20292;-71
2023/06/13 07:16:23;;;;;;;2.88;1.40;;;;;;;28.06;47.51;100681.38;6251732;23;20295;-71
2023/06/13 07:18:53;;;;;;;3.65;1.55;;;;;;;25.82;49.66;100699.22;6251357;23;20056;-71
2023/06/13 07:21:23;;;;;;;4.75;1.20;;;;;;;27.79;48.01;100692.34;6252769;23;20027;-71
2023/06/13 07:23:54;;;;;;;7.50;1.58;;;;;;;27.72;47.75;100685.94;6255588;23;20020;-71
2023/06/13 07:26:24;;;;;;;6.23;1.47;;;;;;;28.66;46.68;100685.53;6253814;23;20017;-71
2023/06/13 07:28:55;;;;;;;3.95;1.70;;;;;;;28.02;47.17;100689.91;6252406;23;20598;-71
2023/06/13 07:31:25;;;;;;;3.22;1.52;;;;;;;28.43;47.12;100681.84;6250152;23;20063;-71
2023/06/13 07:33:56;;;;;;;5.90;1.40;;;;;;;28.45;47.55;100687.88;6250214;23;20539;-71
2023/06/13 07:36:27;;;;;;;4.97;1.42;;;;;;;29.18;46.13;100681.53;6249450;23;20013;-71
2023/06/13 07:38:57;;;;;;;4.20;1.55;;;;;;;28.31;48.29;100683.13;6251334;23;20066;-71
2023/06/13 07:41:34;;;;;;;5.35;1.98;;;;;;;30.08;45.32;100684.69;6253061;23;20025;-71
2023/06/13 07:44:05;;;;;;;8.00;1.60;;;;;;;28.97;47.32;100689.28;6255207;23;20012;-71
2023/06/13 07:46:36;;;;;;;2.78;1.50;;;;;;;29.99;46.71;100691.94;6254803;23;20028;-71
2023/06/13 07:49:06;;;;;;;3.23;1.10;;;;;;;29.85;45.54;100686.44;6249135;23;20373;-70
2023/06/13 07:51:37;;;;;;;2.23;1.40;;;;;;;30.67;45.92;100684.00;6253823;23;20260;-72
2023/06/13 07:54:07;;;;;;;2.63;1.45;;;;;;;31.40;44.13;100675.91;6253298;23;20452;-70
2023/06/13 07:56:37;;;;;;;3.03;1.52;;;;;;;31.27;43.90;100683.84;6253491;23;20083;-71
2023/06/13 07:59:08;;;;;;;2.07;1.20;;;;;;;30.54;45.69;100679.19;6248789;23;20371;-70
2023/06/13 08:01:38;;;;;;;4.97;1.30;;;;;;;30.51;44.82;100674.16;6253269;23;20024;-71
2023/06/13 08:04:08;;;;;;;2.70;1.43;;;;;;;30.01;43.75;100684.53;6250312;23;20763;-69
2023/06/13 08:06:39;;;;;;;2.30;1.50;;;;;;;31.08;44.47;100676.22;6252140;23;20543;-71
2023/06/13 08:09:11;;;;;;;3.35;1.55;;;;;;;31.11;42.44;100680.41;6253323;23;20268;-70
2023/06/13 08:11:41;;;;;;;5.10;1.48;;;;;;;31.05;44.54;100681.97;6252549;23;20017;-71
2023/06/13 08:14:12;;;;;;;4.53;1.50;;;;;;;31.38;43.10;100675.25;6246989;23;20027;-71
2023/06/13 08:16:43;;;;;;;6.22;1.50;;;;;;;32.42;43.10;100671.28;6255015;23;20071;-72
2023/06/13 08:19:13;;;;;;;2.95;1.58;;;;;;;32.35;42.66;100667.66;6251494;23;20061;-71
2023/06/13 08:21:46;;;;;;;2.70;1.53;;;;;;;31.33;43.88;100672.28;6254397;23;20034;-72
2023/06/13 08:24:16;;;;;;;4.28;1.50;;;;;;;32.74;41.59;100661.84;6249548;23;20064;-71
2023/06/13 08:26:49;;;;;;;3.50;1.50;;;;;;;32.50;42.45;100662.19;6256263;23;20016;-71
2023/06/13 08:29:19;;;;;;;3.60;1.80;;;;;;;33.18;40.51;100663.25;6242959;23;20040;-71
2023/06/13 08:31:50;;;;;;;4.57;1.67;;;;;;;32.76;40.78;100673.31;6240251;23;20708;-70
2023/06/13 08:34:20;;;;;;;9.37;2.13;;;;;;;33.25;40.74;100665.03;6252457;23;20020;-71
2023/06/13 08:36:51;;;;;;;3.40;1.90;;;;;;;31.75;41.87;100672.53;6252466;23;20252;-71
2023/06/13 08:39:21;;;;;;;6.63;1.63;;;;;;;33.40;41.74;100668.47;6252770;23;20021;-71
2023/06/13 08:41:52;;;;;;;4.72;1.85;;;;;;;33.75;40.01;100666.59;6252728;23;20502;-71
2023/06/13 08:44:25;;;;;;;2.92;1.60;;;;;;;33.85;39.92;100667.91;6246340;23;20541;-71
2023/06/13 08:46:56;;;;;;;4.10;1.70;;;;;;;33.18;40.96;100668.69;6255213;23;20490;-71
2023/06/13 08:49:27;;;;;;;2.67;1.40;;;;;;;32.84;42.11;100662.34;6248418;23;20024;-71
2023/06/13 08:51:59;;;;;;;2.33;1.48;;;;;;;32.69;42.74;100662.44;6251503;23;20016;-71
2023/06/13 08:54:31;;;;;;;7.10;1.50;;;;;;;32.35;42.12;100659.56;6249671;23;20020;-71
2023/06/13 08:57:06;;;;;;;4.18;1.52;;;;;;;32.80;40.70;100656.50;6254664;23;20175;-71
2023/06/13 08:59:37;;;;;;;6.85;1.88;;;;;;;33.19;41.57;100649.56;6252290;23;20017;-71
2023/06/13 09:02:09;;;;;;;4.13;1.63;;;;;;;33.30;40.66;100651.69;6254039;23;20030;-71
2023/06/13 09:04:40;;;;;;;4.03;1.40;;;;;;;33.67;41.47;100655.91;6252666;23;20111;-71
2023/06/13 09:07:12;;;;;;;3.42;1.38;;;;;;;33.94;39.92;100649.56;6253829;23;20029;-70
2023/06/13 09:09:44;;;;;;;5.68;1.60;;;;;;;32.86;42.79;100655.72;6251715;23;20069;-72
2023/06/13 09:12:19;;;;;;;3.85;1.50;;;;;;;33.19;41.02;100645.97;6246152;23;20428;-70
2023/06/13 09:14:49;;;;;;;3.17;1.67;;;;;;;33.04;42.46;100640.66;6254263;23;20028;-70
2023/06/13 09:17:20;;;;;;;2.17;1.60;;;;;;;31.55;42.86;100647.03;6248408;23;20024;-71
2023/06/13 09:19:50;;;;;;;2.50;1.45;;;;;;;33.03;41.77;100643.56;6254196;23;20256;-71
2023/06/13 09:22:21;;;;;;;3.17;1.40;;;;;;;33.49;40.16;100651.00;5674682;23;20045;-74
2023/06/13 09:24:51;;;;;;;2.83;1.52;;;;;;;33.87;39.24;100637.88;5191007;28;20032;-74
2023/06/13 09:27:22;;;;;;;3.70;1.52;;;;;;;31.39;42.46;100646.38;5184004;28;20032;-73
2023/06/13 09:29:52;;;;;;;3.80;1.77;;;;;;;31.61;41.86;100643.59;5192782;28;20041;-74
2023/06/13 09:32:23;;;;;;;3.15;1.40;;;;;;;33.23;40.75;100636.44;5192633;28;20030;-74
2023/06/13 09:34:53;;;;;;;3.30;1.60;;;;;;;32.25;42.29;100642.78;5183993;28;20476;-74
2023/06/13 09:37:27;;;;;;;7.47;1.58;;;;;;;31.57;41.98;100642.28;5191702;28;20108;-74
2023/06/13 09:40:02;;;;;;;3.30;1.60;;;;;;;29.38;43.23;100647.84;5192540;28;20025;-73
2023/06/13 09:42:33;;;;;;;2.00;1.48;;;;;;;30.02;43.35;100639.50;5188746;28;20033;-74
2023/06/13 09:45:08;;;;;;;3.30;1.70;;;;;;;30.90;42.89;100627.13;5191811;28;20029;-74
2023/06/13 09:47:41;;;;;;;5.20;1.73;;;;;;;30.24;42.70;100630.66;5187666;28;20022;-74
2023/06/13 09:50:11;;;;;;;2.47;1.40;;;;;;;29.77;43.88;100632.56;5183581;28;20034;-73
2023/06/13 09:52:43;;;;;;;3.20;1.60;;;;;;;29.71;43.03;100633.28;5190074;28;20030;-74
2023/06/13 09:55:14;;;;;;;4.25;1.88;;;;;;;29.70;42.74;100623.47;5190523;28;20178;-74
2023/06/13 09:57:44;;;;;;;5.17;1.97;;;;;;;30.04;43.46;100627.56;5178903;28;20511;-74
2023/06/13 10:00:15;;;;;;;3.97;1.40;;;;;;;31.33;40.57;100622.81;5181445;28;20021;-74
2023/06/13 10:02:46;;;;;;;4.00;1.73;;;;;;;32.30;40.16;100617.84;5184824;28;20025;-74
2023/06/13 10:05:16;;;;;;;4.30;1.77;;;;;;;32.16;40.57;100607.88;5186210;28;20029;-74
2023/06/13 10:07:47;;;;;;;2.80;1.70;;;;;;;31.06;41.18;100613.41;5186574;28;20044;-74
2023/06/13 10:10:17;;;;;;;3.75;1.90;;;;;;;29.14;42.47;100615.56;5190879;28;20272;-74
2023/06/13 10:12:51;;;;;;;8.25;2.10;;;;;;;29.75;41.45;100611.16;5182383;28;20025;-73
2023/06/13 10:15:33;;;;;;;4.03;1.92;;;;;;;28.74;44.48;100607.53;5185182;28;20025;-73
2023/06/13 10:18:10;;;;;;;5.10;2.10;;;;;;;28.09;42.24;100604.94;5190771;28;20030;-73
2023/06/13 10:20:46;;;;;;;6.40;2.25;;;;;;;27.67;43.36;100609.47;5188510;28;20034;-73
2023/06/13 10:23:20;;;;;;;8.98;2.38;;;;;;;27.44;41.52;100611.06;5177842;28;20056;-73
2023/06/13 10:25:56;;;;;;;3.50;2.00;;;;;;;27.89;42.63;100615.13;5180619;28;20391;-73
2023/06/13 10:29:08;;;;;;;3.35;2.03;;;;;;;28.07;40.58;100604.25;5181918;28;20021;-73
2023/06/13 10:31:45;;;;;;;4.25;2.55;;;;;;;28.08;40.34;100604.09;5181068;28;20131;-73
2023/06/13 10:34:45;;;;;;;3.95;2.20;;;;;;;27.90;41.88;100606.06;5183632;28;20034;-73
2023/06/13 10:37:33;;;;;;;5.13;2.40;;;;;;;28.01;41.09;100596.84;5183344;28;20149;-73
2023/06/13 10:40:28;;;;;;;5.43;2.95;;;;;;;27.31;42.75;100614.16;5181919;28;20530;-73
2023/06/13 10:43:34;;;;;;;3.87;1.90;;;;;;;27.50;41.79;100597.84;5182751;28;20125;-73
2023/06/13 10:46:06;;;;;;;6.35;2.20;;;;;;;27.78;41.61;100598.47;5179885;28;20033;-73
2023/06/13 10:48:48;;;;;;;4.07;2.08;;;;;;;27.87;41.03;100589.41;5184125;28;20022;-74
2023/06/13 10:51:20;;;;;;;6.25;2.38;;;;;;;26.73;43.56;100602.38;5181608;28;20037;-73
2023/06/13 10:53:56;;;;;;;3.78;2.30;;;;;;;27.04;45.13;100584.81;5180349;28;20487;-73
2023/06/13 10:56:29;;;;;;;5.68;2.13;;;;;;;27.03;42.77;100593.84;5179157;28;20044;-73
2023/06/13 10:59:07;;;;;;;3.90;2.08;;;;;;;27.53;42.31;100580.53;5183317;28;20063;-73
2023/06/13 11:01:40;;;;;;;3.25;2.33;;;;;;;26.72;43.43;100591.78;5181160;28;20411;-73
2023/06/13 11:04:14;;;;;;;6.35;2.20;;;;;;;27.16;41.04;100580.88;5181657;28;20083;-73
2023/06/13 11:06:49;;;;;;;3.22;2.10;;;;;;;27.62;41.89;100575.03;5183699;28;20570;-73
2023/06/13 11:09:21;;;;;;;3.08;2.00;;;;;;;27.55;42.50;100573.16;5185577;28;20033;-72
2023/06/13 11:12:00;;;;;;;3.35;2.10;;;;;;;27.35;40.55;100567.22;5182947;28;20101;-72
2023/06/13 11:14:37;;;;;;;5.82;2.00;;;;;;;27.55;43.50;100570.47;5181994;28;20026;-73
2023/06/13 11:17:07;;;;;;;4.53;2.70;;;;;;;26.73;44.17;100568.50;5184460;28;20126;-73
2023/06/13 11:19:39;;;;;;;5.13;1.92;;;;;;;26.95;43.74;100556.22;5177542;28;20116;-73
2023/06/13 11:22:15;;;;;;;3.08;1.90;;;;;;;27.44;43.65;100547.44;5181069;28;20172;-73
2023/06/13 11:24:47;;;;;;;4.72;2.13;;;;;;;27.28;44.25;100559.97;5182121;28;20029;-73
2023/06/13 11:27:17;;;;;;;6.30;2.22;;;;;;;27.56;43.61;100564.09;5184015;28;20368;-73
2023/06/13 11:29:48;;;;;;;5.95;2.30;;;;;;;26.80;43.47;100559.66;5187028;28;20075;-73
2023/06/13 11:32:19;;;;;;;8.77;3.35;;;;;;;27.45;43.05;100549.13;5186684;28;20526;-73
2023/06/13 11:34:56;;;;;;;5.68;2.10;;;;;;;27.65;42.88;100547.84;5183340;28;20303;-73
2023/06/13 11:37:39;;;;;;;6.10;2.30;;;;;;;27.77;42.00;100545.75;5184118;28;20021;-73
2023/06/13 11:40:22;;;;;;;10.80;2.10;;;;;;;26.72;43.63;100548.03;5183047;28;20029;-73
2023/06/13 11:42:53;;;;;;;5.75;1.95;;;;;;;26.79;43.72;100540.03;5183774;28;20034;-73
2023/06/13 11:45:23;;;;;;;8.80;2.20;;;;;;;26.04;44.69;100548.78;5187156;28;20103;-73
2023/06/13 11:47:58;;;;;;;6.60;2.28;;;;;;;26.13;43.84;100548.72;5185944;28;20104;-73